Huvudsida
METAR-TAF:

METAR-TAF

Flygplatser :

Ürümqi Diwopu International Airport

Ürümqi, Kina

latitud: 43-54N, longitud: 087-28E, höjd: 654 m

Aktuellt väderrapport

Denna rapport gjordes för 27 minuter sedan, klockan 14:30 UTC
Vind 4 kt från väst/sydväst
Temperatur 29°C
Fuktighet 35%
Tryck 1009 hPa
Sikt 10 km eller mer
Inga moln under 1 500 m eller inga cumulonimbus

METAR: ZWWW 201430Z 25002MPS CAVOK 29/12 Q1009 NOSIG

Tid: 20:57 (14:57 UTC)

Väderprognos

Denna rapport gjordes för 5 timmar och 47 minuter sedan, klockan 09:10 UTC
Prognos gäller från 20 kl. 12 UTC till 21 kl. 12 UTC
Vind 8 kt från nord
Sikt 10 km eller mer
Inga moln under 1 500 m eller inga cumulonimbus
Blir
från 20 kl. 13 UTC till 20 kl. 14 UTC
Vind 8 kt från syd
Blir
från 21 kl. 02 UTC till 21 kl. 03 UTC
Vind 8 kt från nord

TAF: ZWWW 200910Z 2012/2112 36004MPS CAVOK TX38/2109Z TN25/2023Z BECMG 2013/2014 18004MPS BECMG 2102/2103 36004MPS

Aktuella väderrapporter och prognoser från 4000 flygplatser (METAR- och TAF-rapporter).

De tillgängliga stationerna syns som gula och röda prickar på kartan.

För musen över prickarna för att se namnen på stationerna.

Klicka sedan för att få väderrapporter och prognoser.

För att ändra kartan: Klicka på de gröna knapparna med ett svart kors på för att zooma in; den gröna knappen med ett streck på för att zooma ut; eller på de gröna pilarna för angränsande kartor.


METAR-TAF: